sensor_id;sensor_type;location;lat;lon;timestamp;temperature;humidity
3348;DHT22;1687;49.540;8.574;2022-10-17T00:01:09;15.70;99.90
3348;DHT22;1687;49.540;8.574;2022-10-17T00:03:36;15.70;99.90
3348;DHT22;1687;49.540;8.574;2022-10-17T00:06:08;15.70;99.90
3348;DHT22;1687;49.540;8.574;2022-10-17T00:08:36;15.70;99.90
3348;DHT22;1687;49.540;8.574;2022-10-17T00:11:11;15.70;99.90
3348;DHT22;1687;49.540;8.574;2022-10-17T00:13:38;15.70;99.90
3348;DHT22;1687;49.540;8.574;2022-10-17T00:16:05;15.80;99.90
3348;DHT22;1687;49.540;8.574;2022-10-17T00:18:31;15.80;99.90
3348;DHT22;1687;49.540;8.574;2022-10-17T00:20:56;15.80;99.90
3348;DHT22;1687;49.540;8.574;2022-10-17T00:23:22;15.90;99.90
3348;DHT22;1687;49.540;8.574;2022-10-17T00:25:57;15.90;99.90
3348;DHT22;1687;49.540;8.574;2022-10-17T00:28:24;15.90;99.90
3348;DHT22;1687;49.540;8.574;2022-10-17T00:31:01;15.90;99.90
3348;DHT22;1687;49.540;8.574;2022-10-17T00:33:28;16.00;99.90
3348;DHT22;1687;49.540;8.574;2022-10-17T00:36:24;16.00;99.90
3348;DHT22;1687;49.540;8.574;2022-10-17T00:38:53;16.00;99.90
3348;DHT22;1687;49.540;8.574;2022-10-17T00:41:23;16.00;99.90
3348;DHT22;1687;49.540;8.574;2022-10-17T00:47:03;15.90;99.90
3348;DHT22;1687;49.540;8.574;2022-10-17T00:49:33;15.90;99.90
3348;DHT22;1687;49.540;8.574;2022-10-17T00:52:06;15.90;99.90
3348;DHT22;1687;49.540;8.574;2022-10-17T00:54:39;15.80;99.90
3348;DHT22;1687;49.540;8.574;2022-10-17T00:57:07;15.90;99.90
3348;DHT22;1687;49.540;8.574;2022-10-17T00:59:35;15.90;99.90
3348;DHT22;1687;49.540;8.574;2022-10-17T01:04:31;15.90;99.90
3348;DHT22;1687;49.540;8.574;2022-10-17T01:06:57;15.90;99.90
3348;DHT22;1687;49.540;8.574;2022-10-17T01:09:24;15.90;99.90
3348;DHT22;1687;49.540;8.574;2022-10-17T01:12:03;15.90;99.90
3348;DHT22;1687;49.540;8.574;2022-10-17T01:14:55;15.90;99.90
3348;DHT22;1687;49.540;8.574;2022-10-17T01:32:46;15.90;99.90
3348;DHT22;1687;49.540;8.574;2022-10-17T01:35:31;15.90;99.90
3348;DHT22;1687;49.540;8.574;2022-10-17T01:38:25;15.90;99.90
3348;DHT22;1687;49.540;8.574;2022-10-17T01:40:59;15.90;99.90
3348;DHT22;1687;49.540;8.574;2022-10-17T01:43:39;15.90;99.90
3348;DHT22;1687;49.540;8.574;2022-10-17T01:46:20;15.80;99.90
3348;DHT22;1687;49.540;8.574;2022-10-17T01:48:49;15.90;99.90
3348;DHT22;1687;49.540;8.574;2022-10-17T01:51:28;15.80;99.90
3348;DHT22;1687;49.540;8.574;2022-10-17T01:54:18;15.80;99.90
3348;DHT22;1687;49.540;8.574;2022-10-17T01:56:49;15.80;99.90
3348;DHT22;1687;49.540;8.574;2022-10-17T01:59:28;15.80;99.90
3348;DHT22;1687;49.540;8.574;2022-10-17T02:01:58;15.80;99.90
3348;DHT22;1687;49.540;8.574;2022-10-17T02:04:25;15.80;99.90
3348;DHT22;1687;49.540;8.574;2022-10-17T02:06:51;15.90;99.90
3348;DHT22;1687;49.540;8.574;2022-10-17T02:09:20;15.90;99.90
3348;DHT22;1687;49.540;8.574;2022-10-17T02:12:06;15.90;99.90
3348;DHT22;1687;49.540;8.574;2022-10-17T02:29:12;15.70;99.90
3348;DHT22;1687;49.540;8.574;2022-10-17T02:31:53;15.70;99.90
3348;DHT22;1687;49.540;8.574;2022-10-17T02:34:30;15.70;99.90
3348;DHT22;1687;49.540;8.574;2022-10-17T02:36:59;15.60;99.90
3348;DHT22;1687;49.540;8.574;2022-10-17T02:39:28;15.60;99.90
3348;DHT22;1687;49.540;8.574;2022-10-17T02:41:56;15.60;99.90
3348;DHT22;1687;49.540;8.574;2022-10-17T02:44:24;15.60;99.90
3348;DHT22;1687;49.540;8.574;2022-10-17T02:46:54;15.50;99.90
3348;DHT22;1687;49.540;8.574;2022-10-17T02:49:29;15.50;99.90
3348;DHT22;1687;49.540;8.574;2022-10-17T02:52:24;15.50;99.90
3348;DHT22;1687;49.540;8.574;2022-10-17T02:55:19;15.50;99.90
3348;DHT22;1687;49.540;8.574;2022-10-17T02:57:54;15.40;99.90
3348;DHT22;1687;49.540;8.574;2022-10-17T03:00:24;15.40;99.90
3348;DHT22;1687;49.540;8.574;2022-10-17T03:02:52;15.40;99.90
3348;DHT22;1687;49.540;8.574;2022-10-17T03:05:21;15.40;99.90
3348;DHT22;1687;49.540;8.574;2022-10-17T03:07:52;15.40;99.90
3348;DHT22;1687;49.540;8.574;2022-10-17T03:10:19;15.40;99.90
3348;DHT22;1687;49.540;8.574;2022-10-17T03:12:45;15.40;99.90
3348;DHT22;1687;49.540;8.574;2022-10-17T03:15:11;15.40;99.90
3348;DHT22;1687;49.540;8.574;2022-10-17T03:17:38;15.40;99.90
3348;DHT22;1687;49.540;8.574;2022-10-17T03:20:04;15.30;99.90
3348;DHT22;1687;49.540;8.574;2022-10-17T03:22:31;15.30;99.90
3348;DHT22;1687;49.540;8.574;2022-10-17T03:24:56;15.30;99.90
3348;DHT22;1687;49.540;8.574;2022-10-17T03:27:23;15.40;99.90
3348;DHT22;1687;49.540;8.574;2022-10-17T03:29:48;15.30;99.90
3348;DHT22;1687;49.540;8.574;2022-10-17T03:32:14;15.30;99.90
3348;DHT22;1687;49.540;8.574;2022-10-17T03:34:40;15.30;99.90
3348;DHT22;1687;49.540;8.574;2022-10-17T03:37:06;15.30;99.90
3348;DHT22;1687;49.540;8.574;2022-10-17T03:39:31;15.30;99.90
3348;DHT22;1687;49.540;8.574;2022-10-17T03:41:57;15.30;99.90
3348;DHT22;1687;49.540;8.574;2022-10-17T03:44:23;15.30;99.90
3348;DHT22;1687;49.540;8.574;2022-10-17T03:46:48;15.20;99.90
3348;DHT22;1687;49.540;8.574;2022-10-17T03:49:14;15.20;99.90
3348;DHT22;1687;49.540;8.574;2022-10-17T03:51:40;15.20;99.90
3348;DHT22;1687;49.540;8.574;2022-10-17T03:54:05;15.20;99.90
3348;DHT22;1687;49.540;8.574;2022-10-17T03:56:31;15.20;99.90
3348;DHT22;1687;49.540;8.574;2022-10-17T03:58:57;15.10;99.90
3348;DHT22;1687;49.540;8.574;2022-10-17T04:01:23;15.10;99.90
3348;DHT22;1687;49.540;8.574;2022-10-17T04:03:50;15.10;99.90
3348;DHT22;1687;49.540;8.574;2022-10-17T04:06:17;15.10;99.90
3348;DHT22;1687;49.540;8.574;2022-10-17T04:08:44;15.10;99.90
3348;DHT22;1687;49.540;8.574;2022-10-17T04:11:13;15.00;99.90
3348;DHT22;1687;49.540;8.574;2022-10-17T04:13:40;15.00;99.90
3348;DHT22;1687;49.540;8.574;2022-10-17T04:16:09;15.00;99.90
3348;DHT22;1687;49.540;8.574;2022-10-17T04:18:37;15.00;99.90
3348;DHT22;1687;49.540;8.574;2022-10-17T04:21:04;15.00;99.90
3348;DHT22;1687;49.540;8.574;2022-10-17T04:23:30;15.00;99.90
3348;DHT22;1687;49.540;8.574;2022-10-17T04:26:00;15.00;99.90
3348;DHT22;1687;49.540;8.574;2022-10-17T04:28:28;15.00;99.90
3348;DHT22;1687;49.540;8.574;2022-10-17T04:30:59;15.00;99.90
3348;DHT22;1687;49.540;8.574;2022-10-17T04:33:26;15.00;99.90
3348;DHT22;1687;49.540;8.574;2022-10-17T04:36:03;15.10;99.90
3348;DHT22;1687;49.540;8.574;2022-10-17T04:38:31;15.10;99.90
3348;DHT22;1687;49.540;8.574;2022-10-17T04:41:00;15.10;99.90
3348;DHT22;1687;49.540;8.574;2022-10-17T04:43:28;15.10;99.90
3348;DHT22;1687;49.540;8.574;2022-10-17T04:45:56;15.10;99.90
3348;DHT22;1687;49.540;8.574;2022-10-17T04:48:22;15.20;99.90
3348;DHT22;1687;49.540;8.574;2022-10-17T04:50:59;15.20;99.90
3348;DHT22;1687;49.540;8.574;2022-10-17T04:53:28;15.20;99.90
3348;DHT22;1687;49.540;8.574;2022-10-17T04:55:56;15.10;99.90
3348;DHT22;1687;49.540;8.574;2022-10-17T04:58:22;15.10;99.90
3348;DHT22;1687;49.540;8.574;2022-10-17T05:00:48;15.10;99.90
3348;DHT22;1687;49.540;8.574;2022-10-17T05:03:13;15.10;99.90
3348;DHT22;1687;49.540;8.574;2022-10-17T05:05:41;15.10;99.90
3348;DHT22;1687;49.540;8.574;2022-10-17T05:08:09;15.00;99.90
3348;DHT22;1687;49.540;8.574;2022-10-17T05:10:41;15.00;99.90
3348;DHT22;1687;49.540;8.574;2022-10-17T05:13:09;15.00;99.90
3348;DHT22;1687;49.540;8.574;2022-10-17T05:15:35;15.00;99.90
3348;DHT22;1687;49.540;8.574;2022-10-17T05:18:02;15.00;99.90
3348;DHT22;1687;49.540;8.574;2022-10-17T05:20:29;15.00;99.90
3348;DHT22;1687;49.540;8.574;2022-10-17T05:22:54;15.00;99.90
3348;DHT22;1687;49.540;8.574;2022-10-17T05:25:21;15.00;99.90
3348;DHT22;1687;49.540;8.574;2022-10-17T05:27:47;15.00;99.90
3348;DHT22;1687;49.540;8.574;2022-10-17T05:30:12;15.00;99.90
3348;DHT22;1687;49.540;8.574;2022-10-17T05:32:38;15.00;99.90
3348;DHT22;1687;49.540;8.574;2022-10-17T05:35:04;15.00;99.90
3348;DHT22;1687;49.540;8.574;2022-10-17T05:37:30;15.00;99.90
3348;DHT22;1687;49.540;8.574;2022-10-17T05:39:56;15.10;99.90
3348;DHT22;1687;49.540;8.574;2022-10-17T05:42:23;15.10;99.90
3348;DHT22;1687;49.540;8.574;2022-10-17T05:44:49;15.10;99.90
3348;DHT22;1687;49.540;8.574;2022-10-17T05:47:15;15.10;99.90
3348;DHT22;1687;49.540;8.574;2022-10-17T05:49:41;15.10;99.90
3348;DHT22;1687;49.540;8.574;2022-10-17T05:52:07;15.10;99.90
3348;DHT22;1687;49.540;8.574;2022-10-17T05:54:33;15.10;99.90
3348;DHT22;1687;49.540;8.574;2022-10-17T05:56:59;15.10;99.90
3348;DHT22;1687;49.540;8.574;2022-10-17T05:59:25;15.10;99.90
3348;DHT22;1687;49.540;8.574;2022-10-17T06:01:52;15.10;99.90
3348;DHT22;1687;49.540;8.574;2022-10-17T06:04:18;15.10;99.90
3348;DHT22;1687;49.540;8.574;2022-10-17T06:06:44;15.10;99.90
3348;DHT22;1687;49.540;8.574;2022-10-17T06:09:09;15.20;99.90
3348;DHT22;1687;49.540;8.574;2022-10-17T06:11:36;15.20;99.90
3348;DHT22;1687;49.540;8.574;2022-10-17T06:14:01;15.20;99.90
3348;DHT22;1687;49.540;8.574;2022-10-17T06:16:27;15.20;99.90
3348;DHT22;1687;49.540;8.574;2022-10-17T06:18:53;15.20;99.90
3348;DHT22;1687;49.540;8.574;2022-10-17T06:21:24;15.20;99.90
3348;DHT22;1687;49.540;8.574;2022-10-17T06:23:51;15.20;99.90
3348;DHT22;1687;49.540;8.574;2022-10-17T06:26:18;15.20;99.90
3348;DHT22;1687;49.540;8.574;2022-10-17T06:28:44;15.20;99.90
3348;DHT22;1687;49.540;8.574;2022-10-17T06:31:14;15.20;99.90
3348;DHT22;1687;49.540;8.574;2022-10-17T06:33:40;15.20;99.90
3348;DHT22;1687;49.540;8.574;2022-10-17T06:36:08;15.20;99.90
3348;DHT22;1687;49.540;8.574;2022-10-17T06:38:36;15.10;99.90
3348;DHT22;1687;49.540;8.574;2022-10-17T06:41:10;15.20;99.90
3348;DHT22;1687;49.540;8.574;2022-10-17T06:43:39;15.20;99.90
3348;DHT22;1687;49.540;8.574;2022-10-17T06:46:08;15.20;99.90
3348;DHT22;1687;49.540;8.574;2022-10-17T06:48:34;15.30;99.90
3348;DHT22;1687;49.540;8.574;2022-10-17T06:51:01;15.30;99.90
3348;DHT22;1687;49.540;8.574;2022-10-17T06:53:30;15.30;99.90
3348;DHT22;1687;49.540;8.574;2022-10-17T06:55:57;15.30;99.90
3348;DHT22;1687;49.540;8.574;2022-10-17T06:58:28;15.30;99.90
3348;DHT22;1687;49.540;8.574;2022-10-17T07:01:02;15.30;99.90
3348;DHT22;1687;49.540;8.574;2022-10-17T07:03:30;15.30;99.90
3348;DHT22;1687;49.540;8.574;2022-10-17T07:05:56;15.40;99.90
3348;DHT22;1687;49.540;8.574;2022-10-17T07:08:22;15.40;99.90
3348;DHT22;1687;49.540;8.574;2022-10-17T07:10:48;15.50;99.90
3348;DHT22;1687;49.540;8.574;2022-10-17T07:13:14;15.60;99.90
3348;DHT22;1687;49.540;8.574;2022-10-17T07:15:40;15.60;99.90
3348;DHT22;1687;49.540;8.574;2022-10-17T07:18:06;15.70;99.90
3348;DHT22;1687;49.540;8.574;2022-10-17T07:20:32;15.80;99.90
3348;DHT22;1687;49.540;8.574;2022-10-17T07:22:58;15.90;99.90
3348;DHT22;1687;49.540;8.574;2022-10-17T07:25:24;16.00;99.90
3348;DHT22;1687;49.540;8.574;2022-10-17T07:27:51;16.10;99.90
3348;DHT22;1687;49.540;8.574;2022-10-17T07:30:17;16.20;99.90
3348;DHT22;1687;49.540;8.574;2022-10-17T07:32:44;16.30;99.90
3348;DHT22;1687;49.540;8.574;2022-10-17T07:35:10;16.40;99.90
3348;DHT22;1687;49.540;8.574;2022-10-17T07:37:37;16.40;99.90
3348;DHT22;1687;49.540;8.574;2022-10-17T07:40:04;16.50;99.90
3348;DHT22;1687;49.540;8.574;2022-10-17T07:42:32;16.60;99.90
3348;DHT22;1687;49.540;8.574;2022-10-17T07:44:58;16.70;99.90
3348;DHT22;1687;49.540;8.574;2022-10-17T07:47:24;16.90;99.90
3348;DHT22;1687;49.540;8.574;2022-10-17T07:49:50;16.90;99.90
3348;DHT22;1687;49.540;8.574;2022-10-17T07:52:16;17.00;99.90
3348;DHT22;1687;49.540;8.574;2022-10-17T07:54:42;17.10;99.90
3348;DHT22;1687;49.540;8.574;2022-10-17T07:57:08;17.10;99.90
3348;DHT22;1687;49.540;8.574;2022-10-17T07:59:36;17.20;99.90
3348;DHT22;1687;49.540;8.574;2022-10-17T08:02:02;17.30;99.90
3348;DHT22;1687;49.540;8.574;2022-10-17T08:04:28;17.40;99.90
3348;DHT22;1687;49.540;8.574;2022-10-17T08:06:54;17.50;99.90
3348;DHT22;1687;49.540;8.574;2022-10-17T08:09:20;17.60;99.90
3348;DHT22;1687;49.540;8.574;2022-10-17T08:11:46;17.70;99.90
3348;DHT22;1687;49.540;8.574;2022-10-17T08:14:13;17.80;99.90
3348;DHT22;1687;49.540;8.574;2022-10-17T08:16:39;17.90;99.90
3348;DHT22;1687;49.540;8.574;2022-10-17T08:19:05;18.10;99.90
3348;DHT22;1687;49.540;8.574;2022-10-17T08:21:33;18.20;99.90
3348;DHT22;1687;49.540;8.574;2022-10-17T08:23:59;18.30;99.90
3348;DHT22;1687;49.540;8.574;2022-10-17T08:26:27;18.30;99.90
3348;DHT22;1687;49.540;8.574;2022-10-17T08:28:53;18.50;99.90
3348;DHT22;1687;49.540;8.574;2022-10-17T08:31:19;18.50;99.90
3348;DHT22;1687;49.540;8.574;2022-10-17T08:33:46;18.60;99.90
3348;DHT22;1687;49.540;8.574;2022-10-17T08:36:15;18.70;99.90
3348;DHT22;1687;49.540;8.574;2022-10-17T08:38:42;18.80;99.90
3348;DHT22;1687;49.540;8.574;2022-10-17T08:47:11;19.20;99.90
3348;DHT22;1687;49.540;8.574;2022-10-17T08:49:51;19.30;99.90
3348;DHT22;1687;49.540;8.574;2022-10-17T08:54:52;19.50;99.90
3348;DHT22;1687;49.540;8.574;2022-10-17T08:57:18;19.60;99.90
3348;DHT22;1687;49.540;8.574;2022-10-17T08:59:44;19.70;99.90
3348;DHT22;1687;49.540;8.574;2022-10-17T09:05:06;19.90;99.90
3348;DHT22;1687;49.540;8.574;2022-10-17T09:08:12;20.00;99.90
3348;DHT22;1687;49.540;8.574;2022-10-17T09:11:22;20.10;99.90
3348;DHT22;1687;49.540;8.574;2022-10-17T09:19:11;20.30;99.90
3348;DHT22;1687;49.540;8.574;2022-10-17T09:21:52;20.40;99.90
3348;DHT22;1687;49.540;8.574;2022-10-17T09:24:48;20.60;99.90
3348;DHT22;1687;49.540;8.574;2022-10-17T09:27:24;20.60;99.90
3348;DHT22;1687;49.540;8.574;2022-10-17T09:30:02;20.60;99.90
3348;DHT22;1687;49.540;8.574;2022-10-17T09:32:38;20.60;99.90
3348;DHT22;1687;49.540;8.574;2022-10-17T09:35:11;20.70;99.90
3348;DHT22;1687;49.540;8.574;2022-10-17T09:37:38;20.80;99.90
3348;DHT22;1687;49.540;8.574;2022-10-17T09:40:06;20.80;99.90
3348;DHT22;1687;49.540;8.574;2022-10-17T09:42:38;20.90;99.90
3348;DHT22;1687;49.540;8.574;2022-10-17T09:45:21;20.80;99.90
3348;DHT22;1687;49.540;8.574;2022-10-17T09:50:32;20.90;99.90
3348;DHT22;1687;49.540;8.574;2022-10-17T09:56:04;21.20;99.90
3348;DHT22;1687;49.540;8.574;2022-10-17T10:01:17;21.40;99.40
3348;DHT22;1687;49.540;8.574;2022-10-17T10:03:44;21.50;99.30
3348;DHT22;1687;49.540;8.574;2022-10-17T10:06:12;21.50;99.00
3348;DHT22;1687;49.540;8.574;2022-10-17T10:08:56;21.60;98.90
3348;DHT22;1687;49.540;8.574;2022-10-17T10:11:51;21.70;98.70
3348;DHT22;1687;49.540;8.574;2022-10-17T10:14:32;21.80;98.70
3348;DHT22;1687;49.540;8.574;2022-10-17T10:17:01;21.90;98.30
3348;DHT22;1687;49.540;8.574;2022-10-17T10:19:30;22.00;98.20
3348;DHT22;1687;49.540;8.574;2022-10-17T10:22:18;22.10;98.20
3348;DHT22;1687;49.540;8.574;2022-10-17T10:25:14;22.20;97.80
3348;DHT22;1687;49.540;8.574;2022-10-17T10:27:43;22.40;97.60
3348;DHT22;1687;49.540;8.574;2022-10-17T10:30:26;22.40;97.40
3348;DHT22;1687;49.540;8.574;2022-10-17T10:32:55;22.40;96.80
3348;DHT22;1687;49.540;8.574;2022-10-17T10:35:34;22.30;96.70
3348;DHT22;1687;49.540;8.574;2022-10-17T10:38:03;22.40;96.90
3348;DHT22;1687;49.540;8.574;2022-10-17T10:40:35;22.50;96.60
3348;DHT22;1687;49.540;8.574;2022-10-17T10:43:04;22.50;96.20
3348;DHT22;1687;49.540;8.574;2022-10-17T10:50:58;22.70;95.80
3348;DHT22;1687;49.540;8.574;2022-10-17T10:53:37;22.70;95.50
3348;DHT22;1687;49.540;8.574;2022-10-17T10:58:58;22.80;95.10
3348;DHT22;1687;49.540;8.574;2022-10-17T11:04:37;22.90;94.60
3348;DHT22;1687;49.540;8.574;2022-10-17T11:10:45;22.80;94.30
3348;DHT22;1687;49.540;8.574;2022-10-17T11:13:31;22.90;94.20
3348;DHT22;1687;49.540;8.574;2022-10-17T11:16:46;23.00;94.40
3348;DHT22;1687;49.540;8.574;2022-10-17T11:19:07;23.00;93.90
3348;DHT22;1687;49.540;8.574;2022-10-17T11:21:47;23.10;93.70
3348;DHT22;1687;49.540;8.574;2022-10-17T11:24:39;23.20;93.60
3348;DHT22;1687;49.540;8.574;2022-10-17T11:27:09;23.30;93.50
3348;DHT22;1687;49.540;8.574;2022-10-17T11:29:39;23.40;93.40
3348;DHT22;1687;49.540;8.574;2022-10-17T11:32:14;23.40;93.00
3348;DHT22;1687;49.540;8.574;2022-10-17T11:35:04;23.30;92.70
3348;DHT22;1687;49.540;8.574;2022-10-17T11:37:39;23.30;92.80
3348;DHT22;1687;49.540;8.574;2022-10-17T11:40:30;23.40;92.80
3348;DHT22;1687;49.540;8.574;2022-10-17T11:43:04;23.50;92.60
3348;DHT22;1687;49.540;8.574;2022-10-17T11:45:41;23.50;92.30
3348;DHT22;1687;49.540;8.574;2022-10-17T11:48:21;23.50;92.10
3348;DHT22;1687;49.540;8.574;2022-10-17T11:50:59;23.50;91.80
3348;DHT22;1687;49.540;8.574;2022-10-17T11:53:33;23.50;91.50
3348;DHT22;1687;49.540;8.574;2022-10-17T11:56:28;23.50;91.40
3348;DHT22;1687;49.540;8.574;2022-10-17T11:59:19;23.60;91.20
3348;DHT22;1687;49.540;8.574;2022-10-17T12:02:13;23.60;91.00
3348;DHT22;1687;49.540;8.574;2022-10-17T12:04:59;23.60;90.70
3348;DHT22;1687;49.540;8.574;2022-10-17T12:07:52;23.60;90.50
3348;DHT22;1687;49.540;8.574;2022-10-17T12:19:11;23.80;89.90
3348;DHT22;1687;49.540;8.574;2022-10-17T12:21:57;23.80;89.50
3348;DHT22;1687;49.540;8.574;2022-10-17T12:27:29;23.90;89.00
3348;DHT22;1687;49.540;8.574;2022-10-17T12:32:30;24.00;88.60
3348;DHT22;1687;49.540;8.574;2022-10-17T12:34:56;24.10;88.20
3348;DHT22;1687;49.540;8.574;2022-10-17T12:45:52;24.30;87.20
3348;DHT22;1687;49.540;8.574;2022-10-17T12:51:05;24.30;86.60
3348;DHT22;1687;49.540;8.574;2022-10-17T12:54:00;24.30;86.30
3348;DHT22;1687;49.540;8.574;2022-10-17T12:56:41;24.40;86.10
3348;DHT22;1687;49.540;8.574;2022-10-17T12:59:17;24.40;85.90
3348;DHT22;1687;49.540;8.574;2022-10-17T13:01:57;24.40;85.50
3348;DHT22;1687;49.540;8.574;2022-10-17T13:04:24;24.50;85.20
3348;DHT22;1687;49.540;8.574;2022-10-17T13:06:53;24.40;84.70
3348;DHT22;1687;49.540;8.574;2022-10-17T13:09:29;24.50;84.60
3348;DHT22;1687;49.540;8.574;2022-10-17T13:11:58;24.50;84.30
3348;DHT22;1687;49.540;8.574;2022-10-17T13:14:27;24.50;84.10
3348;DHT22;1687;49.540;8.574;2022-10-17T13:16:54;24.50;83.70
3348;DHT22;1687;49.540;8.574;2022-10-17T13:19:25;24.60;83.70
3348;DHT22;1687;49.540;8.574;2022-10-17T13:21:56;24.60;83.50
3348;DHT22;1687;49.540;8.574;2022-10-17T13:24:39;24.60;83.30
3348;DHT22;1687;49.540;8.574;2022-10-17T13:27:20;24.60;82.90
3348;DHT22;1687;49.540;8.574;2022-10-17T13:29:58;24.70;82.90
3348;DHT22;1687;49.540;8.574;2022-10-17T13:32:34;24.70;82.80
3348;DHT22;1687;49.540;8.574;2022-10-17T13:35:11;24.80;82.50
3348;DHT22;1687;49.540;8.574;2022-10-17T13:37:40;24.80;82.30
3348;DHT22;1687;49.540;8.574;2022-10-17T13:40:17;24.90;82.40
3348;DHT22;1687;49.540;8.574;2022-10-17T13:42:45;25.00;82.20
3348;DHT22;1687;49.540;8.574;2022-10-17T13:45:32;25.10;82.00
3348;DHT22;1687;49.540;8.574;2022-10-17T13:48:02;25.20;81.80
3348;DHT22;1687;49.540;8.574;2022-10-17T13:50:36;25.30;81.60
3348;DHT22;1687;49.540;8.574;2022-10-17T13:53:28;25.40;81.50
3348;DHT22;1687;49.540;8.574;2022-10-17T13:58:45;25.70;81.00
3348;DHT22;1687;49.540;8.574;2022-10-17T14:01:13;25.90;80.80
3348;DHT22;1687;49.540;8.574;2022-10-17T14:03:41;26.00;80.60
3348;DHT22;1687;49.540;8.574;2022-10-17T14:06:24;26.10;80.40
3348;DHT22;1687;49.540;8.574;2022-10-17T14:09:23;26.20;80.10
3348;DHT22;1687;49.540;8.574;2022-10-17T14:12:08;26.30;79.60
3348;DHT22;1687;49.540;8.574;2022-10-17T14:14:38;26.30;79.20
3348;DHT22;1687;49.540;8.574;2022-10-17T14:17:30;26.50;79.30
3348;DHT22;1687;49.540;8.574;2022-10-17T14:19:59;26.60;78.60
3348;DHT22;1687;49.540;8.574;2022-10-17T14:22:28;26.80;78.40
3348;DHT22;1687;49.540;8.574;2022-10-17T14:24:57;27.10;78.30
3348;DHT22;1687;49.540;8.574;2022-10-17T14:27:34;27.70;78.40
3348;DHT22;1687;49.540;8.574;2022-10-17T14:32:54;28.20;76.80
3348;DHT22;1687;49.540;8.574;2022-10-17T14:35:21;28.00;75.80
3348;DHT22;1687;49.540;8.574;2022-10-17T14:37:50;28.00;75.90
3348;DHT22;1687;49.540;8.574;2022-10-17T14:40:20;28.00;75.50
3348;DHT22;1687;49.540;8.574;2022-10-17T14:42:54;28.00;75.30
3348;DHT22;1687;49.540;8.574;2022-10-17T14:45:26;28.10;74.40
3348;DHT22;1687;49.540;8.574;2022-10-17T14:47:55;27.90;73.70
3348;DHT22;1687;49.540;8.574;2022-10-17T14:50:26;27.70;73.90
3348;DHT22;1687;49.540;8.574;2022-10-17T14:55:55;27.70;73.80
3348;DHT22;1687;49.540;8.574;2022-10-17T14:58:30;28.00;73.60
3348;DHT22;1687;49.540;8.574;2022-10-17T15:00:59;28.20;73.10
3348;DHT22;1687;49.540;8.574;2022-10-17T15:03:26;28.20;72.50
3348;DHT22;1687;49.540;8.574;2022-10-17T15:05:52;28.40;73.10
3348;DHT22;1687;49.540;8.574;2022-10-17T15:08:21;29.00;73.10
3348;DHT22;1687;49.540;8.574;2022-10-17T15:10:49;29.10;72.40
3348;DHT22;1687;49.540;8.574;2022-10-17T15:13:16;28.60;71.40
3348;DHT22;1687;49.540;8.574;2022-10-17T15:15:43;28.10;71.20
3348;DHT22;1687;49.540;8.574;2022-10-17T15:18:10;27.50;71.30
3348;DHT22;1687;49.540;8.574;2022-10-17T15:20:37;26.90;70.70
3348;DHT22;1687;49.540;8.574;2022-10-17T15:23:03;26.50;71.30
3348;DHT22;1687;49.540;8.574;2022-10-17T15:25:30;26.30;71.40
3348;DHT22;1687;49.540;8.574;2022-10-17T15:27:56;26.10;71.60
3348;DHT22;1687;49.540;8.574;2022-10-17T15:30:26;25.90;71.80
3348;DHT22;1687;49.540;8.574;2022-10-17T15:32:53;25.80;71.70
3348;DHT22;1687;49.540;8.574;2022-10-17T15:35:20;25.70;72.00
3348;DHT22;1687;49.540;8.574;2022-10-17T15:37:46;25.60;72.00
3348;DHT22;1687;49.540;8.574;2022-10-17T15:40:21;25.60;72.20
3348;DHT22;1687;49.540;8.574;2022-10-17T15:42:48;25.50;72.10
3348;DHT22;1687;49.540;8.574;2022-10-17T15:45:15;25.50;72.30
3348;DHT22;1687;49.540;8.574;2022-10-17T15:47:51;25.50;72.30
3348;DHT22;1687;49.540;8.574;2022-10-17T15:50:19;25.40;72.40
3348;DHT22;1687;49.540;8.574;2022-10-17T15:52:46;25.30;72.60
3348;DHT22;1687;49.540;8.574;2022-10-17T15:55:15;25.20;72.40
3348;DHT22;1687;49.540;8.574;2022-10-17T15:57:42;25.00;72.50
3348;DHT22;1687;49.540;8.574;2022-10-17T16:00:22;24.80;72.50
3348;DHT22;1687;49.540;8.574;2022-10-17T16:02:48;24.60;72.70
3348;DHT22;1687;49.540;8.574;2022-10-17T16:05:23;24.40;72.80
3348;DHT22;1687;49.540;8.574;2022-10-17T16:07:54;24.30;73.00
3348;DHT22;1687;49.540;8.574;2022-10-17T16:10:21;24.20;73.20
3348;DHT22;1687;49.540;8.574;2022-10-17T16:12:46;24.10;73.30
3348;DHT22;1687;49.540;8.574;2022-10-17T16:15:15;24.00;73.40
3348;DHT22;1687;49.540;8.574;2022-10-17T16:17:47;23.90;73.50
3348;DHT22;1687;49.540;8.574;2022-10-17T16:20:13;23.80;73.70
3348;DHT22;1687;49.540;8.574;2022-10-17T16:22:41;23.70;73.80
3348;DHT22;1687;49.540;8.574;2022-10-17T16:25:17;23.60;73.80
3348;DHT22;1687;49.540;8.574;2022-10-17T16:27:46;23.50;73.90
3348;DHT22;1687;49.540;8.574;2022-10-17T16:30:12;23.40;74.20
3348;DHT22;1687;49.540;8.574;2022-10-17T16:32:39;23.30;74.20
3348;DHT22;1687;49.540;8.574;2022-10-17T16:35:05;23.30;74.50
3348;DHT22;1687;49.540;8.574;2022-10-17T16:37:31;23.20;74.50
3348;DHT22;1687;49.540;8.574;2022-10-17T16:39:57;23.10;74.60
3348;DHT22;1687;49.540;8.574;2022-10-17T16:42:23;23.00;74.70
3348;DHT22;1687;49.540;8.574;2022-10-17T16:44:49;22.90;74.80
3348;DHT22;1687;49.540;8.574;2022-10-17T16:47:16;22.80;75.00
3348;DHT22;1687;49.540;8.574;2022-10-17T16:49:42;22.70;75.00
3348;DHT22;1687;49.540;8.574;2022-10-17T16:52:08;22.70;75.20
3348;DHT22;1687;49.540;8.574;2022-10-17T16:54:34;22.60;75.30
3348;DHT22;1687;49.540;8.574;2022-10-17T16:57:01;22.50;75.40
3348;DHT22;1687;49.540;8.574;2022-10-17T16:59:27;22.50;75.70
3348;DHT22;1687;49.540;8.574;2022-10-17T17:01:53;22.40;75.90
3348;DHT22;1687;49.540;8.574;2022-10-17T17:04:19;22.30;75.90
3348;DHT22;1687;49.540;8.574;2022-10-17T17:06:45;22.20;76.00
3348;DHT22;1687;49.540;8.574;2022-10-17T17:09:11;22.20;76.10
3348;DHT22;1687;49.540;8.574;2022-10-17T17:11:37;22.10;76.20
3348;DHT22;1687;49.540;8.574;2022-10-17T17:14:04;22.00;76.30
3348;DHT22;1687;49.540;8.574;2022-10-17T17:16:32;22.00;76.60
3348;DHT22;1687;49.540;8.574;2022-10-17T17:19:17;21.90;76.50
3348;DHT22;1687;49.540;8.574;2022-10-17T17:21:42;21.80;76.60
3348;DHT22;1687;49.540;8.574;2022-10-17T17:24:16;21.70;76.80
3348;DHT22;1687;49.540;8.574;2022-10-17T17:26:45;21.70;77.00
3348;DHT22;1687;49.540;8.574;2022-10-17T17:29:13;21.70;77.30
3348;DHT22;1687;49.540;8.574;2022-10-17T17:31:39;21.70;77.40
3348;DHT22;1687;49.540;8.574;2022-10-17T17:34:05;21.70;77.50
3348;DHT22;1687;49.540;8.574;2022-10-17T17:36:34;21.70;78.30
3348;DHT22;1687;49.540;8.574;2022-10-17T17:39:02;21.70;77.80
3348;DHT22;1687;49.540;8.574;2022-10-17T17:41:29;21.70;78.00
3348;DHT22;1687;49.540;8.574;2022-10-17T17:43:55;21.70;78.10
3348;DHT22;1687;49.540;8.574;2022-10-17T17:46:22;21.60;78.10
3348;DHT22;1687;49.540;8.574;2022-10-17T17:48:49;21.60;78.30
3348;DHT22;1687;49.540;8.574;2022-10-17T17:51:18;21.60;78.40
3348;DHT22;1687;49.540;8.574;2022-10-17T17:53:46;21.50;78.40
3348;DHT22;1687;49.540;8.574;2022-10-17T17:56:31;21.50;78.70
3348;DHT22;1687;49.540;8.574;2022-10-17T17:59:01;21.50;78.80
3348;DHT22;1687;49.540;8.574;2022-10-17T18:01:30;21.40;79.00
3348;DHT22;1687;49.540;8.574;2022-10-17T18:04:00;21.40;79.00
3348;DHT22;1687;49.540;8.574;2022-10-17T18:06:27;21.40;79.30
3348;DHT22;1687;49.540;8.574;2022-10-17T18:08:56;21.40;79.50
3348;DHT22;1687;49.540;8.574;2022-10-17T18:11:23;21.40;79.50
3348;DHT22;1687;49.540;8.574;2022-10-17T18:14:03;21.40;79.70
3348;DHT22;1687;49.540;8.574;2022-10-17T18:16:32;21.40;79.80